Strona główna
METAR-TAF:

METAR-TAF

Lotnisko :

Port lotniczy Rangun

Rangun, Mjanma

Szerokość geograficzna: 16-46N, Długość geograficzna: 096-10E, wysokość: 14 m

Aktualna obserwacja pogody

Raport powstał 42 minut temu, godzina 19:30 UTC
Wiatr 2 kt od północ
Temperatura 25°C
Wilgotność 89%
Ciśnienie 1010 hPa
Widzialność: 7000 m

METAR: VYYY 091930Z 35002KT 7000 NSC 25/23 Q1010

czas: 02:42 (20:12 UTC)

Prognoza

Raport powstał 3 godziny i 12 minut temu, godzina 17:00 UTC
Prognoza ważna od 09 godzina 18 UTC do 10 godzina 18 UTC
Wiatr 6 kt od północ
Widzialność: 8000 m
Rozproszone chmury na wysokości 1800 ft
Przerywane chmury na wysokości 11000 ft
Przejściowo
od 09 godzina 18 UTC do 09 godzina 24 UTC
Widzialność: 5000 m
Mało chmury na wysokości 2000 ft
Mało chmury na wysokości 11000 ft
Stopniowe zmiany
od 10 godzina 00 UTC do 10 godzina 02 UTC
Widzialność: 2000 m
Płytka mgła

TAF: VYYY 091700Z 0918/1018 35006KT 8000 SCT018 BKN110 TEMPO 0918/0924 5000 FEW020 FEW110 BECMG 1000/1002 2000 MIFG

Obserwacja i prognoza pogody dla ponad 4000 lotnisk (raport METAR i TAF).

Dostępne stacje oznaczono żółtymi i czerwonymi punktami na mapie.

Najedź kursorem aby zobaczyć nazwę stacji.

Kliknij aby zobaczyć obserwacje i prognozy pogody.

Aby zmienić mapę: kliknij na zielony przycisk z czarnym krzyżykiem, aby powiększyć; na zielony przycisk z myślnikiem, aby pomniejszyć; na zielone strzałki, aby przejść do map sąsiednich.


METAR-TAF: